createdAt,value
2022-12-03T00:00:21.688Z,19.80
2022-12-03T00:02:48.584Z,20.30
2022-12-03T00:05:15.665Z,20.20
2022-12-03T00:07:42.393Z,20.50
2022-12-03T00:10:10.237Z,20.10
2022-12-03T00:12:36.991Z,20.40
2022-12-03T00:15:04.929Z,21.50
2022-12-03T00:17:32.268Z,19.40
2022-12-03T00:19:59.511Z,19.70
2022-12-03T00:22:26.479Z,21.00
2022-12-03T00:24:53.585Z,19.00
2022-12-03T00:27:20.510Z,20.60
2022-12-03T00:29:47.324Z,20.30
2022-12-03T00:32:14.418Z,20.10
2022-12-03T00:34:41.124Z,20.00
2022-12-03T00:37:07.826Z,18.90
2022-12-03T00:39:34.464Z,20.30
2022-12-03T00:42:01.097Z,20.00
2022-12-03T00:44:27.833Z,21.60
2022-12-03T00:46:54.670Z,18.90
2022-12-03T00:49:21.414Z,21.40
2022-12-03T00:51:48.083Z,20.70
2022-12-03T00:54:14.762Z,19.70
2022-12-03T00:56:41.460Z,20.50
2022-12-03T00:59:08.135Z,20.00
2022-12-03T01:01:34.966Z,20.60
2022-12-03T01:04:01.685Z,18.50
2022-12-03T01:06:28.382Z,19.30
2022-12-03T01:08:55.050Z,17.90
2022-12-03T01:11:37.019Z,19.10
2022-12-03T01:14:09.092Z,18.60
2022-12-03T01:16:36.057Z,19.60
2022-12-03T01:19:03.880Z,18.00
2022-12-03T01:21:30.635Z,19.30
2022-12-03T01:23:57.374Z,20.40
2022-12-03T01:26:25.469Z,18.70
2022-12-03T01:28:52.981Z,19.20
2022-12-03T01:31:35.837Z,20.50
2022-12-03T01:34:02.736Z,19.80
2022-12-03T01:36:29.496Z,18.40
2022-12-03T01:38:56.350Z,19.70
2022-12-03T01:41:25.096Z,18.40
2022-12-03T01:43:53.883Z,19.50
2022-12-03T01:46:27.436Z,19.40
2022-12-03T01:48:55.870Z,19.00
2022-12-03T01:51:22.873Z,18.10
2022-12-03T01:53:51.280Z,17.70
2022-12-03T01:56:19.362Z,17.70
2022-12-03T01:58:47.012Z,17.40
2022-12-03T02:01:17.342Z,16.30
2022-12-03T02:03:45.801Z,17.10
2022-12-03T02:06:18.769Z,16.50
2022-12-03T02:08:47.621Z,18.20
2022-12-03T02:11:32.061Z,18.70
2022-12-03T02:16:29.165Z,15.90
2022-12-03T02:18:56.734Z,17.40
2022-12-03T02:21:26.852Z,17.60
2022-12-03T02:24:16.184Z,17.80
2022-12-03T02:26:43.051Z,18.00
2022-12-03T02:29:09.752Z,17.30
2022-12-03T02:31:37.588Z,17.10
2022-12-03T02:34:07.084Z,18.40
2022-12-03T02:36:36.133Z,18.10
2022-12-03T02:39:03.632Z,17.80
2022-12-03T02:41:45.808Z,18.40
2022-12-03T02:44:12.737Z,16.80
2022-12-03T02:46:39.584Z,16.70
2022-12-03T02:49:06.582Z,16.70
2022-12-03T02:51:34.636Z,16.80
2022-12-03T02:54:02.872Z,16.40
2022-12-03T02:56:33.055Z,17.70
2022-12-03T02:59:03.099Z,17.40
2022-12-03T03:01:30.025Z,17.00
2022-12-03T03:03:57.782Z,18.30
2022-12-03T03:06:24.813Z,18.10
2022-12-03T03:08:52.417Z,18.10
2022-12-03T03:11:19.285Z,18.10
2022-12-03T03:13:46.316Z,18.50
2022-12-03T03:16:13.207Z,18.60
2022-12-03T03:18:40.312Z,18.50
2022-12-03T03:21:07.722Z,18.40
2022-12-03T03:23:34.478Z,18.10
2022-12-03T03:26:06.366Z,18.70
2022-12-03T03:28:36.134Z,19.30
2022-12-03T03:31:06.550Z,19.90
2022-12-03T03:33:34.040Z,19.20
2022-12-03T03:36:01.407Z,19.00
2022-12-03T03:38:30.296Z,18.20
2022-12-03T03:40:59.478Z,18.40
2022-12-03T03:43:26.570Z,17.60
2022-12-03T03:46:09.453Z,18.20
2022-12-03T03:48:36.547Z,19.10
2022-12-03T03:51:08.968Z,18.80
2022-12-03T03:53:40.309Z,18.30
2022-12-03T03:56:08.231Z,17.50
2022-12-03T03:58:35.468Z,18.10
2022-12-03T04:01:02.350Z,17.90
2022-12-03T04:03:29.500Z,18.80
2022-12-03T04:05:56.239Z,18.40
2022-12-03T04:08:23.195Z,19.90
2022-12-03T04:11:05.350Z,18.90
2022-12-03T04:13:32.053Z,18.90
2022-12-03T04:15:58.727Z,19.40
2022-12-03T04:18:41.091Z,17.90
2022-12-03T04:21:23.546Z,17.40
2022-12-03T04:23:50.318Z,16.80
2022-12-03T04:26:32.986Z,15.70
2022-12-03T04:28:59.864Z,17.50
2022-12-03T04:31:41.884Z,16.90
2022-12-03T04:34:25.386Z,16.10
2022-12-03T04:36:52.298Z,16.10
2022-12-03T04:39:19.064Z,15.00
2022-12-03T04:41:46.031Z,15.80
2022-12-03T04:44:28.523Z,16.10
2022-12-03T04:46:55.401Z,17.20
2022-12-03T04:49:22.309Z,16.40
2022-12-03T04:51:49.178Z,16.10
2022-12-03T04:54:16.222Z,18.10
2022-12-03T04:56:43.095Z,17.90
2022-12-03T04:59:15.786Z,17.40
2022-12-03T05:01:43.456Z,17.50
2022-12-03T05:04:11.450Z,16.30
2022-12-03T05:06:38.252Z,16.80
2022-12-03T05:09:06.479Z,18.30
2022-12-03T05:11:33.395Z,19.00
2022-12-03T05:14:00.240Z,18.70
2022-12-03T05:16:29.037Z,19.40
2022-12-03T05:18:55.796Z,19.70
2022-12-03T05:21:22.579Z,18.80
2022-12-03T05:23:49.806Z,17.90
2022-12-03T05:26:16.539Z,13.70
2022-12-03T05:28:43.231Z,15.50
2022-12-03T05:31:10.154Z,11.10
2022-12-03T05:33:42.441Z,18.40
2022-12-03T05:36:11.066Z,17.90
2022-12-03T05:38:37.792Z,19.60
2022-12-03T05:41:24.945Z,17.50
2022-12-03T05:43:51.605Z,19.50
2022-12-03T05:46:18.475Z,17.70
2022-12-03T05:48:45.901Z,17.70
2022-12-03T05:51:28.464Z,18.50
2022-12-03T05:53:57.154Z,17.00
2022-12-03T05:56:23.915Z,19.20
2022-12-03T05:58:50.594Z,19.10
2022-12-03T06:01:17.248Z,19.10
2022-12-03T06:03:44.270Z,16.20
2022-12-03T06:06:11.247Z,17.50
2022-12-03T06:08:37.950Z,17.10
2022-12-03T06:11:04.670Z,19.10
2022-12-03T06:13:31.332Z,18.90
2022-12-03T06:15:58.068Z,16.50
2022-12-03T06:18:24.815Z,19.20
2022-12-03T06:20:51.487Z,18.80
2022-12-03T06:23:18.153Z,20.40
2022-12-03T06:25:44.890Z,16.00
2022-12-03T06:28:11.612Z,16.10
2022-12-03T06:30:38.348Z,17.30
2022-12-03T06:33:05.256Z,19.80
2022-12-03T06:35:31.918Z,20.10
2022-12-03T06:37:58.680Z,21.70
2022-12-03T06:40:26.142Z,20.10
2022-12-03T06:42:53.144Z,22.70
2022-12-03T06:45:19.837Z,22.30
2022-12-03T06:47:46.580Z,21.50
2022-12-03T06:50:13.995Z,20.00
2022-12-03T06:52:40.687Z,22.00
2022-12-03T06:55:08.052Z,22.00
2022-12-03T06:57:35.029Z,22.60
2022-12-03T07:00:05.604Z,20.30
2022-12-03T07:02:32.409Z,23.80
2022-12-03T07:04:59.299Z,23.50
2022-12-03T07:07:26.026Z,20.70
2022-12-03T07:09:52.770Z,25.90
2022-12-03T07:12:19.548Z,28.90
2022-12-03T07:14:46.212Z,24.40
2022-12-03T07:17:12.891Z,21.00
2022-12-03T07:19:39.655Z,22.80
2022-12-03T07:22:06.366Z,22.70
2022-12-03T07:24:33.183Z,23.10
2022-12-03T07:27:00.169Z,21.50
2022-12-03T07:29:26.929Z,22.50
2022-12-03T07:31:53.792Z,22.30
2022-12-03T07:34:20.629Z,21.90
2022-12-03T07:36:47.530Z,24.20
2022-12-03T07:39:15.427Z,25.00
2022-12-03T07:41:42.099Z,23.80
2022-12-03T07:44:14.015Z,16.30
2022-12-03T07:46:41.777Z,20.80
2022-12-03T07:49:08.685Z,23.80
2022-12-03T07:51:35.466Z,23.30
2022-12-03T07:54:02.219Z,22.40
2022-12-03T07:56:28.949Z,22.00
2022-12-03T07:58:55.957Z,25.20
2022-12-03T08:01:22.765Z,23.50
2022-12-03T08:03:49.695Z,23.10
2022-12-03T08:06:16.453Z,25.10
2022-12-03T08:08:43.736Z,23.50
2022-12-03T08:11:14.894Z,24.10
2022-12-03T08:13:41.590Z,25.60
2022-12-03T08:16:16.980Z,23.90
2022-12-03T08:18:44.305Z,21.60
2022-12-03T08:21:14.254Z,23.60
2022-12-03T08:23:41.096Z,18.30
2022-12-03T08:26:25.493Z,25.30
2022-12-03T08:31:27.950Z,22.50
2022-12-03T08:34:06.868Z,21.90
2022-12-03T08:36:33.636Z,23.20
2022-12-03T08:39:05.512Z,24.20
2022-12-03T08:41:47.625Z,14.40
2022-12-03T08:44:36.915Z,17.80
2022-12-03T08:47:20.343Z,17.80
2022-12-03T08:49:53.470Z,23.20
2022-12-03T08:52:26.991Z,24.20
2022-12-03T08:54:56.064Z,19.30
2022-12-03T08:57:32.462Z,23.70
2022-12-03T09:00:14.225Z,23.40
2022-12-03T09:02:58.453Z,21.70
2022-12-03T09:05:30.906Z,22.30
2022-12-03T09:10:26.105Z,22.20
2022-12-03T09:12:53.324Z,21.60
2022-12-03T09:15:20.045Z,20.60
2022-12-03T09:17:50.012Z,19.80
2022-12-03T09:20:16.888Z,23.10
2022-12-03T09:22:43.612Z,22.80
2022-12-03T09:25:10.608Z,23.30
2022-12-03T09:27:37.668Z,21.50
2022-12-03T09:30:05.996Z,19.90
2022-12-03T09:32:32.815Z,24.70
2022-12-03T09:34:59.543Z,25.00
2022-12-03T09:37:26.409Z,25.80
2022-12-03T09:39:53.096Z,19.60
2022-12-03T09:42:19.933Z,14.20
2022-12-03T09:44:46.600Z,23.90
2022-12-03T09:47:13.478Z,24.70
2022-12-03T09:49:40.575Z,24.40
2022-12-03T09:52:08.252Z,20.90
2022-12-03T09:54:35.404Z,22.00
2022-12-03T09:57:04.331Z,25.30
2022-12-03T09:59:33.357Z,24.50
2022-12-03T10:02:01.435Z,25.80
2022-12-03T10:04:29.118Z,23.90
2022-12-03T10:06:57.848Z,21.10
2022-12-03T10:09:27.390Z,23.30
2022-12-03T10:11:55.732Z,27.00
2022-12-03T10:14:22.801Z,24.10
2022-12-03T10:16:50.959Z,21.80
2022-12-03T10:19:25.491Z,17.30
2022-12-03T10:21:52.743Z,25.10
2022-12-03T10:24:20.579Z,25.10
2022-12-03T10:26:49.591Z,25.60
2022-12-03T10:29:20.841Z,22.60
2022-12-03T10:31:59.187Z,24.40
2022-12-03T10:37:20.412Z,24.60
2022-12-03T10:39:57.090Z,24.60
2022-12-03T10:42:27.016Z,26.10
2022-12-03T10:45:13.368Z,23.80
2022-12-03T10:47:40.182Z,26.80
2022-12-03T10:50:18.106Z,24.70
2022-12-03T10:52:46.476Z,26.60
2022-12-03T10:55:14.928Z,24.70
2022-12-03T10:57:45.705Z,26.10
2022-12-03T11:00:21.071Z,22.50
2022-12-03T11:02:54.928Z,21.60
2022-12-03T11:05:32.797Z,23.20
2022-12-03T11:08:02.736Z,23.70
2022-12-03T11:10:29.464Z,22.50
2022-12-03T11:13:31.833Z,24.00
2022-12-03T11:16:00.069Z,24.50
2022-12-03T11:18:42.738Z,25.10
2022-12-03T11:21:11.291Z,24.80
2022-12-03T11:23:59.214Z,24.90
2022-12-03T11:26:40.049Z,22.20
2022-12-03T11:29:14.106Z,22.90
2022-12-03T11:31:46.628Z,23.60
2022-12-03T11:37:12.773Z,22.70
2022-12-03T11:42:25.746Z,22.60
2022-12-03T11:45:08.704Z,23.40
2022-12-03T11:47:39.665Z,22.50
2022-12-03T11:50:21.988Z,23.50
2022-12-03T11:52:54.753Z,22.80
2022-12-03T11:55:24.940Z,24.10
2022-12-03T11:57:58.580Z,23.30
2022-12-03T12:00:25.506Z,23.80
2022-12-03T12:02:54.896Z,21.70
2022-12-03T12:05:36.437Z,23.00
2022-12-03T12:08:03.492Z,22.50
2022-12-03T12:10:47.357Z,23.60
2022-12-03T12:13:26.703Z,22.30
2022-12-03T12:15:54.083Z,21.50
2022-12-03T12:18:40.092Z,23.90
2022-12-03T12:21:37.860Z,22.80
2022-12-03T12:24:42.998Z,22.90
2022-12-03T12:27:11.881Z,22.80
2022-12-03T12:29:45.993Z,21.40
2022-12-03T12:34:44.182Z,19.90
2022-12-03T12:37:13.717Z,23.40
2022-12-03T12:39:40.932Z,24.70
2022-12-03T12:42:27.343Z,15.60
2022-12-03T12:44:58.016Z,24.20
2022-12-03T12:47:25.084Z,24.40
2022-12-03T12:49:52.130Z,23.80
2022-12-03T12:52:19.353Z,19.40
2022-12-03T12:54:46.082Z,23.80
2022-12-03T12:57:16.735Z,19.10
2022-12-03T12:59:43.429Z,25.30
2022-12-03T13:02:31.727Z,24.00
2022-12-03T13:05:02.387Z,22.90
2022-12-03T13:07:29.369Z,24.00
2022-12-03T13:10:16.701Z,24.30
2022-12-03T13:12:44.502Z,25.40
2022-12-03T13:15:36.555Z,26.30
2022-12-03T13:18:22.242Z,26.20
2022-12-03T13:20:49.128Z,19.50
2022-12-03T13:26:32.875Z,26.70
2022-12-03T13:29:11.190Z,34.20
2022-12-03T13:31:43.515Z,31.00
2022-12-03T13:34:31.854Z,21.10
2022-12-03T13:37:00.870Z,32.10
2022-12-03T13:39:32.287Z,27.80
2022-12-03T13:42:33.298Z,25.50
2022-12-03T13:45:02.627Z,25.90
2022-12-03T13:47:29.339Z,25.10
2022-12-03T13:50:00.043Z,25.30
2022-12-03T13:52:33.143Z,26.70
2022-12-03T13:55:03.439Z,26.30
2022-12-03T13:57:30.094Z,26.00
2022-12-03T13:59:57.072Z,26.80
2022-12-03T14:05:09.191Z,25.10
2022-12-03T14:07:37.421Z,24.90
2022-12-03T14:10:06.099Z,24.10
2022-12-03T14:12:37.218Z,25.50
2022-12-03T14:15:09.007Z,26.70
2022-12-03T14:17:35.728Z,27.10
2022-12-03T14:20:04.123Z,27.60
2022-12-03T14:22:31.041Z,28.50
2022-12-03T14:24:58.150Z,27.00
2022-12-03T14:27:25.122Z,30.40
2022-12-03T14:29:52.629Z,28.90
2022-12-03T14:32:24.086Z,30.60
2022-12-03T14:34:52.136Z,28.20
2022-12-03T14:37:18.857Z,27.20
2022-12-03T14:39:45.585Z,28.00
2022-12-03T14:42:13.326Z,26.90
2022-12-03T14:44:46.263Z,28.20
2022-12-03T14:47:14.960Z,27.90
2022-12-03T14:49:41.916Z,26.40
2022-12-03T14:52:12.276Z,26.50
2022-12-03T14:54:42.816Z,26.40
2022-12-03T14:57:13.497Z,27.00
2022-12-03T14:59:41.987Z,29.40
2022-12-03T15:02:09.791Z,29.70
2022-12-03T15:04:37.534Z,29.50
2022-12-03T15:07:04.831Z,28.40
2022-12-03T15:09:31.586Z,29.70
2022-12-03T15:12:00.016Z,29.30
2022-12-03T15:14:26.986Z,28.50
2022-12-03T15:16:53.810Z,27.00
2022-12-03T15:22:05.189Z,28.40
2022-12-03T15:24:32.004Z,29.90
2022-12-03T15:26:58.741Z,28.80
2022-12-03T15:29:25.561Z,30.70
2022-12-03T15:31:52.314Z,24.60
2022-12-03T15:34:28.271Z,27.20
2022-12-03T15:36:55.091Z,30.70
2022-12-03T15:39:22.265Z,27.80
2022-12-03T15:41:48.962Z,31.60
2022-12-03T15:44:15.916Z,28.30
2022-12-03T15:46:42.726Z,28.80
2022-12-03T15:49:09.605Z,27.90
2022-12-03T15:51:36.406Z,32.50
2022-12-03T15:54:03.276Z,29.40
2022-12-03T15:56:30.083Z,29.20
2022-12-03T15:58:56.876Z,28.20
2022-12-03T16:01:23.630Z,27.60
2022-12-03T16:03:50.380Z,38.70
2022-12-03T16:06:32.507Z,37.60
2022-12-03T16:08:59.219Z,28.60
2022-12-03T16:11:25.917Z,25.40
2022-12-03T16:14:00.807Z,26.60
2022-12-03T16:16:27.678Z,27.00
2022-12-03T16:18:54.416Z,24.90
2022-12-03T16:21:26.398Z,25.80
2022-12-03T16:23:53.915Z,54.80
2022-12-03T16:26:20.744Z,32.30
2022-12-03T16:28:48.456Z,27.60
2022-12-03T16:31:15.306Z,29.90
2022-12-03T16:33:42.016Z,28.60
2022-12-03T16:36:08.870Z,30.10
2022-12-03T16:38:35.604Z,30.60
2022-12-03T16:41:02.815Z,28.20
2022-12-03T16:43:33.290Z,41.40
2022-12-03T16:49:05.993Z,27.70
2022-12-03T16:51:32.668Z,30.10
2022-12-03T16:53:59.335Z,28.50
2022-12-03T16:56:26.036Z,28.40
2022-12-03T16:58:52.748Z,28.40
2022-12-03T17:01:21.024Z,31.10
2022-12-03T17:03:47.862Z,29.10
2022-12-03T17:06:15.215Z,28.40
2022-12-03T17:08:47.306Z,27.40
2022-12-03T17:13:43.295Z,23.60
2022-12-03T17:16:10.056Z,20.50
2022-12-03T17:18:37.116Z,30.70
2022-12-03T17:21:04.541Z,28.70
2022-12-03T17:23:31.424Z,26.80
2022-12-03T17:25:58.421Z,27.50
2022-12-03T17:28:25.268Z,29.70
2022-12-03T17:30:52.236Z,31.10
2022-12-03T17:33:19.374Z,31.90
2022-12-03T17:35:46.623Z,30.30
2022-12-03T17:38:13.404Z,29.70
2022-12-03T17:40:40.117Z,28.20
2022-12-03T17:43:06.794Z,27.50
2022-12-03T17:45:33.586Z,29.40
2022-12-03T17:48:00.619Z,29.10
2022-12-03T17:50:27.301Z,29.70
2022-12-03T17:52:53.952Z,30.70
2022-12-03T17:55:30.979Z,27.30
2022-12-03T17:58:03.923Z,27.80
2022-12-03T18:00:30.698Z,28.20
2022-12-03T18:02:57.482Z,28.60
2022-12-03T18:05:24.384Z,28.80
2022-12-03T18:07:51.488Z,28.80
2022-12-03T18:10:18.512Z,29.70
2022-12-03T18:12:45.257Z,29.30
2022-12-03T18:15:11.968Z,28.00
2022-12-03T18:17:38.697Z,24.70
2022-12-03T18:20:06.535Z,26.80
2022-12-03T18:22:33.819Z,25.80
2022-12-03T18:25:00.869Z,26.40
2022-12-03T18:27:27.633Z,26.10
2022-12-03T18:29:54.626Z,26.00
2022-12-03T18:32:28.777Z,25.20
2022-12-03T18:34:57.710Z,26.00
2022-12-03T18:37:28.106Z,26.40
2022-12-03T18:39:56.409Z,27.50
2022-12-03T18:42:23.872Z,29.30
2022-12-03T18:44:53.892Z,29.10
2022-12-03T18:47:24.406Z,29.20
2022-12-03T18:49:51.511Z,31.30
2022-12-03T18:52:21.700Z,29.40
2022-12-03T18:54:48.968Z,31.10
2022-12-03T18:57:16.771Z,29.70
2022-12-03T18:59:43.539Z,28.70
2022-12-03T19:02:38.645Z,27.20
2022-12-03T19:05:03.885Z,26.80
2022-12-03T19:07:30.696Z,25.90
2022-12-03T19:09:57.532Z,26.50
2022-12-03T19:12:24.588Z,27.00
2022-12-03T19:14:51.406Z,28.30
2022-12-03T19:17:18.130Z,37.30
2022-12-03T19:19:44.915Z,43.10
2022-12-03T19:22:27.058Z,33.90
2022-12-03T19:24:53.823Z,28.30
2022-12-03T19:27:20.570Z,28.10
2022-12-03T19:29:49.797Z,29.90
2022-12-03T19:32:34.618Z,29.60
2022-12-03T19:35:05.181Z,29.20
2022-12-03T19:37:48.247Z,28.30
2022-12-03T19:40:16.347Z,27.60
2022-12-03T19:42:43.540Z,30.20
2022-12-03T19:45:10.866Z,30.50
2022-12-03T19:47:38.192Z,30.70
2022-12-03T19:50:06.464Z,31.40
2022-12-03T19:52:35.270Z,28.90
2022-12-03T19:55:02.280Z,28.50
2022-12-03T19:57:29.037Z,26.70
2022-12-03T19:59:56.051Z,27.50
2022-12-03T20:02:23.161Z,26.30
2022-12-03T20:04:50.284Z,27.40
2022-12-03T20:07:17.185Z,29.20
2022-12-03T20:09:43.899Z,26.60
2022-12-03T20:12:10.606Z,26.80
2022-12-03T20:14:38.304Z,25.60
2022-12-03T20:17:20.505Z,25.50
2022-12-03T20:19:47.209Z,25.90
2022-12-03T20:22:16.459Z,26.40
2022-12-03T20:24:43.137Z,26.30
2022-12-03T20:27:09.824Z,25.90
2022-12-03T20:29:36.531Z,31.40
2022-12-03T20:32:05.088Z,32.70
2022-12-03T20:34:31.904Z,30.80
2022-12-03T20:36:58.582Z,27.80
2022-12-03T20:39:25.279Z,28.70
2022-12-03T20:41:52.097Z,24.80
2022-12-03T20:44:18.963Z,29.90
2022-12-03T20:46:45.742Z,29.00
2022-12-03T20:49:12.487Z,28.30
2022-12-03T20:51:39.260Z,28.10
2022-12-03T20:54:06.032Z,30.30
2022-12-03T20:56:35.705Z,25.60
2022-12-03T20:59:05.725Z,26.60
2022-12-03T21:01:33.100Z,28.40
2022-12-03T21:04:00.015Z,29.20
2022-12-03T21:06:28.134Z,26.70
2022-12-03T21:08:56.170Z,28.10
2022-12-03T21:11:25.544Z,28.60
2022-12-03T21:13:54.102Z,29.80
2022-12-03T21:17:07.137Z,29.40
2022-12-03T21:19:26.371Z,26.80
2022-12-03T21:21:53.159Z,26.60
2022-12-03T21:24:19.926Z,24.80
2022-12-03T21:26:46.761Z,26.20
2022-12-03T21:29:13.546Z,27.20
2022-12-03T21:31:40.297Z,26.20
2022-12-03T21:34:08.499Z,27.10
2022-12-03T21:36:35.299Z,28.40
2022-12-03T21:39:01.987Z,27.80
2022-12-03T21:41:28.787Z,27.50
2022-12-03T21:43:55.943Z,27.40
2022-12-03T21:47:09.561Z,30.20
2022-12-03T21:49:09.493Z,35.50
2022-12-03T21:51:36.362Z,39.80
2022-12-03T21:54:03.352Z,33.00
2022-12-03T21:56:31.909Z,30.60
2022-12-03T21:58:58.660Z,31.00
2022-12-03T22:01:25.749Z,27.30
2022-12-03T22:03:52.747Z,26.80
2022-12-03T22:06:19.841Z,26.10
2022-12-03T22:08:47.591Z,26.50
2022-12-03T22:11:17.200Z,25.70
2022-12-03T22:13:44.139Z,24.50
2022-12-03T22:16:14.874Z,24.80
2022-12-03T22:18:41.689Z,23.80
2022-12-03T22:21:11.866Z,25.00
2022-12-03T22:23:38.629Z,25.60
2022-12-03T22:26:08.177Z,25.90
2022-12-03T22:28:35.457Z,26.20
2022-12-03T22:31:07.107Z,24.20
2022-12-03T22:33:34.867Z,27.00
2022-12-03T22:36:05.917Z,29.40
2022-12-03T22:38:32.957Z,26.90
2022-12-03T22:41:00.558Z,27.50
2022-12-03T22:43:27.378Z,28.40
2022-12-03T22:45:55.467Z,26.30
2022-12-03T22:48:23.113Z,29.00
2022-12-03T22:50:51.590Z,27.30
2022-12-03T22:53:19.134Z,25.80
2022-12-03T22:55:55.167Z,26.50
2022-12-03T22:58:22.452Z,27.00
2022-12-03T23:00:49.447Z,27.50
2022-12-03T23:03:16.317Z,23.20
2022-12-03T23:05:43.176Z,26.20
2022-12-03T23:08:13.571Z,22.00
2022-12-03T23:10:43.029Z,27.90
2022-12-03T23:13:11.023Z,25.80
2022-12-03T23:15:37.985Z,24.50
2022-12-03T23:18:04.859Z,23.30
2022-12-03T23:20:31.560Z,22.20
2022-12-03T23:22:58.437Z,27.50
2022-12-03T23:25:25.289Z,27.20
2022-12-03T23:27:51.955Z,28.20
2022-12-03T23:30:18.828Z,29.50
2022-12-03T23:32:45.752Z,29.00
2022-12-03T23:35:13.447Z,29.00
2022-12-03T23:37:43.642Z,29.40
2022-12-03T23:40:11.646Z,27.10
2022-12-03T23:42:38.385Z,25.60
2022-12-03T23:45:05.534Z,21.70
2022-12-03T23:47:32.228Z,25.60
2022-12-03T23:49:58.937Z,27.40
2022-12-03T23:52:25.835Z,25.70
2022-12-03T23:54:52.517Z,25.70
2022-12-03T23:57:19.229Z,26.60
2022-12-03T23:59:46.093Z,25.50
